createdAt,value
2023-03-06T00:01:10.723Z,98430.50
2023-03-06T00:03:38.839Z,98431.22
2023-03-06T00:06:07.556Z,98436.78
2023-03-06T00:08:35.631Z,98436.19
2023-03-06T00:11:03.585Z,98436.19
2023-03-06T00:13:32.216Z,98436.97
2023-03-06T00:16:01.679Z,98437.28
2023-03-06T00:18:31.147Z,98428.16
2023-03-06T00:20:59.139Z,98426.84
2023-03-06T00:23:28.054Z,98429.34
2023-03-06T00:25:56.094Z,98421.09
2023-03-06T00:28:24.280Z,98422.16
2023-03-06T00:30:52.351Z,98416.34
2023-03-06T00:33:20.400Z,98419.00
2023-03-06T00:35:49.741Z,98418.72
2023-03-06T00:38:17.813Z,98409.56
2023-03-06T00:40:45.991Z,98409.03
2023-03-06T00:43:14.438Z,98403.56
2023-03-06T00:45:42.577Z,98405.63
2023-03-06T00:48:10.725Z,98408.03
2023-03-06T00:50:38.782Z,98411.50
2023-03-06T00:53:11.116Z,98406.44
2023-03-06T00:55:39.115Z,98409.13
2023-03-06T00:58:07.153Z,98399.50
2023-03-06T01:00:35.191Z,98396.81
2023-03-06T01:03:03.531Z,98400.09
2023-03-06T01:05:32.158Z,98392.06
2023-03-06T01:08:00.277Z,98396.91
2023-03-06T01:10:29.798Z,98389.97
2023-03-06T01:12:58.016Z,98399.88
2023-03-06T01:15:26.780Z,98401.78
2023-03-06T01:17:55.170Z,98402.66
2023-03-06T01:20:23.517Z,98400.56
2023-03-06T01:22:51.602Z,98399.78
2023-03-06T01:25:19.678Z,98395.00
2023-03-06T01:27:49.147Z,98394.81
2023-03-06T01:30:17.369Z,98389.53
2023-03-06T01:32:45.447Z,98385.13
2023-03-06T01:35:14.176Z,98379.16
2023-03-06T01:37:43.027Z,98380.13
2023-03-06T01:40:13.502Z,98381.88
2023-03-06T01:42:42.505Z,98376.41
2023-03-06T01:45:43.748Z,98380.53
2023-03-06T01:48:13.696Z,98373.88
2023-03-06T01:50:42.100Z,98371.50
2023-03-06T01:53:10.454Z,98372.06
2023-03-06T01:55:38.717Z,98380.09
2023-03-06T01:58:10.077Z,98382.75
2023-03-06T02:00:38.418Z,98383.84
2023-03-06T02:03:11.077Z,98380.75
2023-03-06T02:05:42.656Z,98376.34
2023-03-06T02:08:11.947Z,98379.66
2023-03-06T02:10:43.547Z,98380.59
2023-03-06T02:13:11.703Z,98380.38
2023-03-06T02:15:40.196Z,98380.09
2023-03-06T02:18:08.458Z,98381.38
2023-03-06T02:20:44.871Z,98382.41
2023-03-06T02:23:21.192Z,98374.09
2023-03-06T02:25:52.580Z,98379.44
2023-03-06T02:28:23.187Z,98385.88
2023-03-06T02:30:53.510Z,98380.28
2023-03-06T02:33:24.266Z,98380.09
2023-03-06T02:35:55.165Z,98375.84
2023-03-06T02:38:26.462Z,98382.53
2023-03-06T02:40:58.063Z,98376.16
2023-03-06T02:43:30.730Z,98368.53
2023-03-06T02:45:59.099Z,98374.22
2023-03-06T02:48:27.272Z,98371.88
2023-03-06T02:50:55.364Z,98379.97
2023-03-06T02:53:23.747Z,98369.84
2023-03-06T02:55:52.335Z,98376.06
2023-03-06T02:58:21.874Z,98372.13
2023-03-06T03:00:50.615Z,98383.94
2023-03-06T03:03:19.177Z,98381.31
2023-03-06T03:05:47.223Z,98375.56
2023-03-06T03:08:15.265Z,98369.75
2023-03-06T03:10:43.319Z,98380.19
2023-03-06T03:13:11.410Z,98372.22
2023-03-06T03:15:41.300Z,98385.63
2023-03-06T03:18:10.338Z,98379.28
2023-03-06T03:20:38.404Z,98379.31
2023-03-06T03:23:06.424Z,98380.97
2023-03-06T03:25:34.445Z,98373.50
2023-03-06T03:28:02.624Z,98382.88
2023-03-06T03:30:32.147Z,98388.75
2023-03-06T03:33:01.562Z,98387.19
2023-03-06T03:35:29.722Z,98382.97
2023-03-06T03:37:57.842Z,98379.75
2023-03-06T03:40:25.860Z,98385.09
2023-03-06T03:42:54.022Z,98376.56
2023-03-06T03:45:22.258Z,98385.38
2023-03-06T03:47:50.308Z,98379.53
2023-03-06T03:50:20.322Z,98373.41
2023-03-06T03:52:48.296Z,98381.91
2023-03-06T03:55:16.341Z,98385.38
2023-03-06T03:57:44.491Z,98384.31
2023-03-06T04:00:16.396Z,98383.75
2023-03-06T04:02:45.190Z,98378.94
2023-03-06T04:05:15.021Z,98381.84
2023-03-06T04:07:44.878Z,98388.47
2023-03-06T04:10:14.010Z,98382.88
2023-03-06T04:12:42.265Z,98389.00
2023-03-06T04:15:11.177Z,98379.13
2023-03-06T04:17:39.189Z,98386.03
2023-03-06T04:20:08.397Z,98389.00
2023-03-06T04:22:36.381Z,98389.78
2023-03-06T04:25:06.665Z,98385.03
2023-03-06T04:27:34.757Z,98397.84
2023-03-06T04:30:02.845Z,98395.47
2023-03-06T04:32:30.991Z,98391.97
2023-03-06T04:34:59.230Z,98388.00
2023-03-06T04:37:27.644Z,98392.84
2023-03-06T04:39:55.921Z,98390.44
2023-03-06T04:42:25.400Z,98392.88
2023-03-06T04:44:53.500Z,98390.25
2023-03-06T04:47:21.644Z,98389.72
2023-03-06T04:49:49.788Z,98391.09
2023-03-06T04:52:17.923Z,98389.78
2023-03-06T04:54:46.484Z,98399.63
2023-03-06T04:57:15.169Z,98388.72
2023-03-06T04:59:44.638Z,98393.81
2023-03-06T05:02:12.644Z,98387.41
2023-03-06T05:04:40.807Z,98391.69
2023-03-06T05:07:08.933Z,98394.84
2023-03-06T05:09:39.169Z,98394.81
2023-03-06T05:12:07.706Z,98400.38
2023-03-06T05:14:35.822Z,98396.09
2023-03-06T05:17:05.250Z,98395.75
2023-03-06T05:19:33.307Z,98386.16
2023-03-06T05:22:01.375Z,98396.75
2023-03-06T05:24:29.618Z,98396.72
2023-03-06T05:26:57.685Z,98401.16
2023-03-06T05:29:25.785Z,98400.28
2023-03-06T05:31:54.013Z,98399.66
2023-03-06T05:34:23.831Z,98400.41
2023-03-06T05:36:51.943Z,98403.03
2023-03-06T05:39:20.065Z,98401.66
2023-03-06T05:41:48.035Z,98404.28
2023-03-06T05:44:16.065Z,98410.06
2023-03-06T05:46:44.016Z,98413.69
2023-03-06T05:49:12.109Z,98414.16
2023-03-06T05:51:41.534Z,98410.34
2023-03-06T05:54:09.601Z,98415.06
2023-03-06T05:56:37.749Z,98415.22
2023-03-06T05:59:05.777Z,98422.88
2023-03-06T06:01:33.745Z,98419.06
2023-03-06T06:04:01.839Z,98425.13
2023-03-06T06:06:29.879Z,98424.03
2023-03-06T06:08:59.333Z,98426.59
2023-03-06T06:11:27.328Z,98431.03
2023-03-06T06:13:55.270Z,98427.72
2023-03-06T06:16:23.384Z,98429.75
2023-03-06T06:18:51.423Z,98424.59
2023-03-06T06:21:19.512Z,98425.53
2023-03-06T06:23:47.935Z,98422.78
2023-03-06T06:26:17.517Z,98422.50
2023-03-06T06:28:45.572Z,98421.56
2023-03-06T06:31:14.573Z,98423.84
2023-03-06T06:33:43.193Z,98424.28
2023-03-06T06:36:19.156Z,98431.13
2023-03-06T06:38:47.255Z,98427.59
2023-03-06T06:44:08.597Z,98440.44
2023-03-06T06:47:20.644Z,98444.59
2023-03-06T06:49:25.496Z,98442.72
2023-03-06T06:51:53.524Z,98444.22
2023-03-06T06:54:22.390Z,98447.69
2023-03-06T06:56:50.496Z,98453.75
2023-03-06T06:59:20.309Z,98447.13
2023-03-06T07:01:48.418Z,98458.53
2023-03-06T07:04:18.101Z,98459.03
2023-03-06T07:06:47.505Z,98449.31
2023-03-06T07:09:16.247Z,98456.56
2023-03-06T07:11:44.243Z,98462.81
2023-03-06T07:14:12.338Z,98459.00
2023-03-06T07:16:41.728Z,98456.72
2023-03-06T07:19:09.961Z,98461.97
2023-03-06T07:21:37.995Z,98461.56
2023-03-06T07:24:06.501Z,98466.22
2023-03-06T07:26:34.991Z,98480.50
2023-03-06T07:29:03.769Z,98464.72
2023-03-06T07:31:31.958Z,98467.28
2023-03-06T07:34:03.875Z,98466.47
2023-03-06T07:36:33.376Z,98475.28
2023-03-06T07:39:01.728Z,98474.63
2023-03-06T07:41:29.810Z,98483.47
2023-03-06T07:43:57.881Z,98471.78
2023-03-06T07:46:25.902Z,98469.44
2023-03-06T07:48:54.264Z,98471.38
2023-03-06T07:51:24.033Z,98471.38
2023-03-06T07:53:52.080Z,98475.09
2023-03-06T07:56:20.263Z,98472.28
2023-03-06T07:58:49.016Z,98469.63
2023-03-06T08:01:19.906Z,98479.31
2023-03-06T08:03:50.087Z,98463.25
2023-03-06T08:06:20.262Z,98469.75
2023-03-06T08:08:52.497Z,98464.22
2023-03-06T08:11:22.568Z,98471.03
2023-03-06T08:13:52.816Z,98468.97
2023-03-06T08:16:21.537Z,98465.03
2023-03-06T08:18:49.818Z,98471.56
2023-03-06T08:21:20.195Z,98467.13
2023-03-06T08:23:49.734Z,98469.56
2023-03-06T08:26:20.082Z,98469.56
2023-03-06T08:28:48.747Z,98465.72
2023-03-06T08:31:26.166Z,98475.72
2023-03-06T08:33:54.651Z,98468.31
2023-03-06T08:36:23.966Z,98473.41
2023-03-06T08:38:53.723Z,98468.47
2023-03-06T08:41:22.720Z,98466.56
2023-03-06T08:43:51.729Z,98462.78
2023-03-06T08:46:21.394Z,98459.13
2023-03-06T08:48:49.499Z,98461.19
2023-03-06T08:51:18.005Z,98455.66
2023-03-06T08:53:46.331Z,98459.28
2023-03-06T08:56:20.482Z,98457.69
2023-03-06T08:58:48.985Z,98450.91
2023-03-06T09:01:18.264Z,98466.75
2023-03-06T09:03:47.054Z,98450.59
2023-03-06T09:06:15.648Z,98453.44
2023-03-06T09:08:44.787Z,98457.84
2023-03-06T09:11:14.155Z,98461.66
2023-03-06T09:13:44.517Z,98442.53
2023-03-06T09:16:13.536Z,98453.78
2023-03-06T09:18:41.973Z,98451.88
2023-03-06T09:21:11.021Z,98440.78
2023-03-06T09:23:40.580Z,98435.88
2023-03-06T09:26:09.068Z,98435.56
2023-03-06T09:28:40.631Z,98431.28
2023-03-06T09:31:11.376Z,98425.09
2023-03-06T09:33:40.221Z,98426.84
2023-03-06T09:36:09.941Z,98423.06
2023-03-06T09:38:37.973Z,98419.72
2023-03-06T09:41:10.279Z,98421.16
2023-03-06T09:43:43.507Z,98428.09
2023-03-06T09:46:24.321Z,98416.88
2023-03-06T09:49:10.519Z,98410.22
2023-03-06T09:51:50.979Z,98408.78
2023-03-06T09:54:28.053Z,98403.69
2023-03-06T09:56:56.204Z,98404.00
2023-03-06T09:59:27.664Z,98405.25
2023-03-06T10:02:10.199Z,98409.38
2023-03-06T10:04:42.022Z,98407.16
2023-03-06T10:07:15.934Z,98409.09
2023-03-06T10:09:48.532Z,98414.91
2023-03-06T10:12:25.013Z,98418.81
2023-03-06T10:15:08.158Z,98426.81
2023-03-06T10:17:43.271Z,98424.25
2023-03-06T10:20:18.780Z,98426.25
2023-03-06T10:23:01.238Z,98413.03
2023-03-06T10:25:34.498Z,98412.50
2023-03-06T10:28:14.119Z,98409.78
2023-03-06T10:30:47.734Z,98411.69
2023-03-06T10:33:24.820Z,98403.41
2023-03-06T10:35:55.244Z,98412.59
2023-03-06T10:38:25.149Z,98411.34
2023-03-06T10:41:05.436Z,98407.53
2023-03-06T10:43:36.172Z,98409.47
2023-03-06T10:46:05.143Z,98410.72
2023-03-06T10:48:38.138Z,98400.25
2023-03-06T10:51:19.405Z,98396.66
2023-03-06T10:53:56.490Z,98391.97
2023-03-06T10:56:30.319Z,98388.50
2023-03-06T10:59:07.841Z,98389.72
2023-03-06T11:01:36.084Z,98378.34
2023-03-06T11:04:23.084Z,98372.25
2023-03-06T11:07:06.681Z,98372.25
2023-03-06T11:09:35.334Z,98358.50
2023-03-06T11:12:23.360Z,98370.22
2023-03-06T11:15:21.110Z,98355.03
2023-03-06T11:17:58.848Z,98354.56
2023-03-06T11:20:48.470Z,98355.47
2023-03-06T11:23:22.765Z,98345.75
2023-03-06T11:25:57.489Z,98334.94
2023-03-06T11:28:29.733Z,98338.09
2023-03-06T11:31:03.093Z,98346.78
2023-03-06T11:33:36.792Z,98346.66
2023-03-06T11:36:15.690Z,98341.03
2023-03-06T11:38:50.087Z,98338.22
2023-03-06T11:41:32.405Z,98326.63
2023-03-06T11:44:13.788Z,98323.81
2023-03-06T11:46:48.818Z,98322.84
2023-03-06T11:49:23.972Z,98323.38
2023-03-06T11:51:56.590Z,98325.53
2023-03-06T11:54:24.830Z,98319.13
2023-03-06T11:56:58.699Z,98308.06
2023-03-06T11:59:45.969Z,98306.66
2023-03-06T12:02:26.532Z,98310.66
2023-03-06T12:05:02.972Z,98311.53
2023-03-06T12:07:34.915Z,98299.00
2023-03-06T12:10:18.455Z,98295.97
2023-03-06T12:13:06.847Z,98291.78
2023-03-06T12:15:50.387Z,98287.56
2023-03-06T12:18:36.308Z,98284.53
2023-03-06T12:21:11.103Z,98277.09
2023-03-06T12:24:04.190Z,98290.38
2023-03-06T12:26:53.469Z,98284.00
2023-03-06T12:29:37.495Z,98284.78
2023-03-06T12:32:16.913Z,98281.09
2023-03-06T12:35:17.651Z,98289.22
2023-03-06T12:37:59.444Z,98278.00
2023-03-06T12:40:43.372Z,98275.22
2023-03-06T12:43:34.732Z,98270.50
2023-03-06T12:46:09.693Z,98272.41
2023-03-06T12:48:38.544Z,98272.91
2023-03-06T12:51:08.973Z,98267.78
2023-03-06T12:53:38.525Z,98269.09
2023-03-06T12:56:08.977Z,98267.19
2023-03-06T12:58:52.281Z,98260.16
2023-03-06T13:01:58.032Z,98255.72
2023-03-06T13:05:01.414Z,98262.38
2023-03-06T13:07:55.659Z,98255.41
2023-03-06T13:10:27.884Z,98249.19
2023-03-06T13:13:01.042Z,98250.63
2023-03-06T13:15:36.787Z,98243.03
2023-03-06T13:18:56.890Z,98243.31
2023-03-06T13:22:10.570Z,98242.84
2023-03-06T13:24:38.871Z,98235.31
2023-03-06T13:27:09.920Z,98239.22
2023-03-06T13:30:08.261Z,98234.66
2023-03-06T13:32:37.371Z,98233.88
2023-03-06T13:35:53.186Z,98229.59
2023-03-06T13:39:01.225Z,98229.66
2023-03-06T13:41:54.478Z,98233.72
2023-03-06T13:44:51.147Z,98231.97
2023-03-06T13:48:06.545Z,98228.75
2023-03-06T13:50:41.131Z,98228.69
2023-03-06T13:53:33.080Z,98235.31
2023-03-06T13:56:14.819Z,98233.53
2023-03-06T13:59:04.410Z,98226.25
2023-03-06T14:01:49.997Z,98226.53
2023-03-06T14:04:38.974Z,98222.75
2023-03-06T14:07:25.928Z,98217.16
2023-03-06T14:10:12.728Z,98205.41
2023-03-06T14:12:44.566Z,98203.69
2023-03-06T14:15:20.177Z,98202.13
2023-03-06T14:17:57.491Z,98202.75
2023-03-06T14:20:33.413Z,98206.31
2023-03-06T14:23:27.657Z,98190.50
2023-03-06T14:26:00.118Z,98186.44
2023-03-06T14:28:30.035Z,98175.91
2023-03-06T14:30:59.903Z,98175.19
2023-03-06T14:33:32.661Z,98180.66
2023-03-06T14:36:04.290Z,98174.84
2023-03-06T14:38:37.467Z,98180.16
2023-03-06T14:41:06.818Z,98188.69
2023-03-06T14:43:35.077Z,98189.31
2023-03-06T14:46:05.131Z,98188.75
2023-03-06T14:48:42.386Z,98174.19
2023-03-06T14:51:18.083Z,98176.81
2023-03-06T14:53:48.547Z,98163.16
2023-03-06T14:56:20.124Z,98164.25
2023-03-06T14:58:54.773Z,98168.44
2023-03-06T15:01:33.220Z,98158.47
2023-03-06T15:04:03.016Z,98154.66
2023-03-06T15:06:36.440Z,98154.00
2023-03-06T15:09:10.236Z,98153.69
2023-03-06T15:11:59.346Z,98155.34
2023-03-06T15:14:36.949Z,98154.59
2023-03-06T15:17:29.901Z,98144.56
2023-03-06T15:19:59.764Z,98150.13
2023-03-06T15:22:32.831Z,98145.72
2023-03-06T15:25:30.080Z,98144.22
2023-03-06T15:27:59.927Z,98146.47
2023-03-06T15:30:31.126Z,98146.63
2023-03-06T15:33:21.210Z,98137.72
2023-03-06T15:35:55.053Z,98141.16
2023-03-06T15:38:31.101Z,98135.63
2023-03-06T15:41:01.261Z,98135.69
2023-03-06T15:43:30.960Z,98132.91
2023-03-06T15:46:01.630Z,98138.34
2023-03-06T15:48:29.831Z,98137.72
2023-03-06T15:50:58.068Z,98132.25
2023-03-06T15:53:28.473Z,98121.59
2023-03-06T15:55:57.471Z,98127.28
2023-03-06T15:58:26.944Z,98120.75
2023-03-06T16:00:55.114Z,98114.66
2023-03-06T16:03:23.216Z,98126.72
2023-03-06T16:05:51.250Z,98122.09
2023-03-06T16:08:19.350Z,98129.09
2023-03-06T16:10:50.592Z,98122.22
2023-03-06T16:13:24.845Z,98132.41
2023-03-06T16:15:53.242Z,98122.91
2023-03-06T16:18:21.519Z,98117.22
2023-03-06T16:20:50.944Z,98123.47
2023-03-06T16:23:19.135Z,98116.28
2023-03-06T16:25:50.529Z,98118.72
2023-03-06T16:28:18.943Z,98120.03
2023-03-06T16:30:47.082Z,98117.84
2023-03-06T16:33:15.695Z,98122.25
2023-03-06T16:35:46.596Z,98121.84
2023-03-06T16:38:15.798Z,98120.00
2023-03-06T16:40:43.758Z,98119.78
2023-03-06T16:43:16.158Z,98121.56
2023-03-06T16:45:44.794Z,98126.31
2023-03-06T16:48:17.074Z,98117.13
2023-03-06T16:50:46.152Z,98120.47
2023-03-06T16:53:14.193Z,98124.41
2023-03-06T16:55:42.762Z,98129.94
2023-03-06T16:58:12.320Z,98130.84
2023-03-06T17:00:40.448Z,98137.28
2023-03-06T17:03:08.729Z,98129.88
2023-03-06T17:05:39.961Z,98131.84
2023-03-06T17:08:08.040Z,98129.97
2023-03-06T17:10:36.264Z,98128.44
2023-03-06T17:13:05.170Z,98128.50
2023-03-06T17:15:34.661Z,98116.97
2023-03-06T17:18:02.784Z,98117.16
2023-03-06T17:20:30.923Z,98115.28
2023-03-06T17:22:59.054Z,98124.63
2023-03-06T17:25:26.979Z,98113.25
2023-03-06T17:27:55.064Z,98121.34
2023-03-06T17:30:23.364Z,98124.19
2023-03-06T17:32:53.745Z,98131.16
2023-03-06T17:35:21.797Z,98122.19
2023-03-06T17:37:49.924Z,98122.19
2023-03-06T17:40:18.166Z,98115.72
2023-03-06T17:42:46.151Z,98111.13
2023-03-06T17:45:14.137Z,98115.09
2023-03-06T17:47:42.253Z,98116.50
2023-03-06T17:50:12.933Z,98110.97
2023-03-06T17:52:41.136Z,98114.63
2023-03-06T17:55:10.072Z,98113.34
2023-03-06T17:57:38.001Z,98105.94
2023-03-06T18:00:07.699Z,98111.28
2023-03-06T18:02:35.809Z,98122.81
2023-03-06T18:05:06.402Z,98117.75
2023-03-06T18:07:35.958Z,98114.47
2023-03-06T18:10:04.445Z,98108.47
2023-03-06T18:12:32.742Z,98110.81
2023-03-06T18:15:00.808Z,98102.47
2023-03-06T18:17:28.876Z,98108.75
2023-03-06T18:19:57.176Z,98100.41
2023-03-06T18:22:25.280Z,98105.78
2023-03-06T18:24:54.659Z,98096.44
2023-03-06T18:27:22.833Z,98095.19
2023-03-06T18:29:52.217Z,98100.22
2023-03-06T18:32:20.201Z,98100.22
2023-03-06T18:34:50.682Z,98099.28
2023-03-06T18:37:18.863Z,98099.13
2023-03-06T18:39:47.129Z,98100.84
2023-03-06T18:42:16.640Z,98101.03
2023-03-06T18:44:47.779Z,98092.81
2023-03-06T18:47:16.273Z,98101.19
2023-03-06T18:49:46.004Z,98093.91
2023-03-06T18:52:14.028Z,98102.13
2023-03-06T18:54:42.296Z,98094.25
2023-03-06T18:57:11.386Z,98093.91
2023-03-06T18:59:40.876Z,98084.75
2023-03-06T19:02:08.955Z,98094.41
2023-03-06T19:04:38.034Z,98088.69
2023-03-06T19:07:06.235Z,98087.91
2023-03-06T19:09:34.581Z,98090.28
2023-03-06T19:12:03.765Z,98084.91
2023-03-06T19:14:31.867Z,98081.09
2023-03-06T19:17:01.956Z,98081.75
2023-03-06T19:19:30.060Z,98077.78
2023-03-06T19:21:59.564Z,98075.44
2023-03-06T19:24:27.957Z,98074.19
2023-03-06T19:26:55.961Z,98066.41
2023-03-06T19:29:23.997Z,98059.16
2023-03-06T19:31:52.276Z,98061.53
2023-03-06T19:34:21.783Z,98055.06
2023-03-06T19:36:53.608Z,98051.59
2023-03-06T19:39:21.551Z,98051.25
2023-03-06T19:41:49.547Z,98050.16
2023-03-06T19:44:17.897Z,98050.13
2023-03-06T19:46:45.940Z,98047.44
2023-03-06T19:49:16.911Z,98052.00
2023-03-06T19:51:46.408Z,98055.47
2023-03-06T19:54:15.361Z,98046.31
2023-03-06T19:56:43.827Z,98048.63
2023-03-06T19:59:11.943Z,98055.25
2023-03-06T20:01:40.458Z,98043.09
2023-03-06T20:04:08.547Z,98046.06
2023-03-06T20:06:37.757Z,98042.31
2023-03-06T20:09:09.632Z,98038.81
2023-03-06T20:11:37.834Z,98045.16
2023-03-06T20:14:08.026Z,98045.16
2023-03-06T20:16:37.281Z,98046.41
2023-03-06T20:19:06.487Z,98040.06
2023-03-06T20:21:37.657Z,98038.97
2023-03-06T20:24:09.282Z,98040.22
2023-03-06T20:26:38.633Z,98044.38
2023-03-06T20:29:06.717Z,98047.22
2023-03-06T20:31:34.754Z,98042.34
2023-03-06T20:34:03.291Z,98034.09
2023-03-06T20:36:35.527Z,98040.56
2023-03-06T20:39:08.889Z,98039.44
2023-03-06T20:41:37.268Z,98046.81
2023-03-06T20:44:07.655Z,98040.16
2023-03-06T20:46:36.587Z,98032.88
2023-03-06T20:49:05.276Z,98033.31
2023-03-06T20:51:36.257Z,98029.81
2023-03-06T20:54:04.708Z,98025.47
2023-03-06T20:56:36.346Z,98033.47
2023-03-06T20:59:05.793Z,98020.81
2023-03-06T21:01:36.264Z,98014.34
2023-03-06T21:04:05.310Z,98011.00
2023-03-06T21:06:34.081Z,98014.06
2023-03-06T21:09:02.626Z,98017.03
2023-03-06T21:11:30.838Z,98016.75
2023-03-06T21:14:01.050Z,98012.50
2023-03-06T21:16:30.356Z,98019.13
2023-03-06T21:19:00.501Z,98018.19
2023-03-06T21:21:31.276Z,98022.44
2023-03-06T21:23:59.893Z,98023.72
2023-03-06T21:26:30.137Z,98026.56
2023-03-06T21:28:59.562Z,98024.56
2023-03-06T21:31:28.403Z,98039.72
2023-03-06T21:33:56.887Z,98035.03
2023-03-06T21:36:25.072Z,98043.72
2023-03-06T21:38:54.540Z,98046.25
2023-03-06T21:41:25.088Z,98041.09
2023-03-06T21:43:56.566Z,98045.53
2023-03-06T21:46:27.121Z,98041.94
2023-03-06T21:48:55.522Z,98054.72
2023-03-06T21:51:24.757Z,98029.81
2023-03-06T21:53:53.918Z,98046.97
2023-03-06T21:56:25.047Z,98046.03
2023-03-06T21:58:53.601Z,98033.13
2023-03-06T22:01:23.810Z,98023.50
2023-03-06T22:03:53.713Z,98022.56
2023-03-06T22:06:25.014Z,98022.63
2023-03-06T22:08:53.665Z,98021.88
2023-03-06T22:11:23.483Z,98015.47
2023-03-06T22:13:53.314Z,98025.28
2023-03-06T22:16:21.637Z,98033.97
2023-03-06T22:18:51.744Z,98040.00
2023-03-06T22:21:23.352Z,98043.94
2023-03-06T22:23:52.048Z,98043.63
2023-03-06T22:26:20.838Z,98048.69
2023-03-06T22:28:48.946Z,98051.66
2023-03-06T22:31:18.739Z,98051.50
2023-03-06T22:33:47.454Z,98049.16
2023-03-06T22:36:16.939Z,98054.50
2023-03-06T22:38:48.117Z,98058.88
2023-03-06T22:41:20.262Z,98057.44
2023-03-06T22:43:48.666Z,98047.47
2023-03-06T22:46:18.561Z,98045.41
2023-03-06T22:48:46.955Z,98044.88
2023-03-06T22:51:17.190Z,98037.38
2023-03-06T22:53:46.970Z,98029.63
2023-03-06T22:56:17.176Z,98023.78
2023-03-06T22:58:45.781Z,98020.94
2023-03-06T23:01:16.088Z,98027.25
2023-03-06T23:03:45.906Z,98025.84
2023-03-06T23:06:15.751Z,98028.72
2023-03-06T23:08:44.607Z,98024.34
2023-03-06T23:11:17.227Z,98029.53
2023-03-06T23:13:45.756Z,98029.41
2023-03-06T23:16:14.365Z,98028.50
2023-03-06T23:18:42.932Z,98023.91
2023-03-06T23:21:13.253Z,98020.13
2023-03-06T23:23:41.799Z,98004.03
2023-03-06T23:26:11.905Z,98001.56
2023-03-06T23:28:41.665Z,97995.72
2023-03-06T23:31:10.570Z,97987.34
2023-03-06T23:33:39.797Z,97980.75
2023-03-06T23:36:09.896Z,97986.69
2023-03-06T23:38:38.306Z,97982.28
2023-03-06T23:41:09.091Z,97977.53
2023-03-06T23:43:37.498Z,97976.56
2023-03-06T23:46:08.264Z,97975.13
2023-03-06T23:48:37.323Z,97965.63
2023-03-06T23:51:07.581Z,97966.38
2023-03-06T23:53:36.250Z,97969.31
2023-03-06T23:56:06.455Z,97963.91
2023-03-06T23:58:34.661Z,97972.09
